KECG/ECG METAR and TAF weather

Enter ICAO airport designator
Station Type Date Time Source
KECG METAR 2020/09/22 06:54 UTC NOAA

KECG 220654Z 34010KT 10SM OVC045 16/11 A3025 RMK AO2 SLP244 T01610106


Station Type Date Time Source
KECG Decoded METAR 2020/09/22 06:54 UTC NOAA

ELIZABETH CITY C/G REGN AIRPORT , NC, United States (KECG) 36-15N 076-10W 11M
Sep 22, 2020 - 02:54 AM EDT / 2020.09.22 0654 UTC
Wind: from the NNW (340 degrees) at 12 MPH (10 KT):0
Visibility: 10 mile(s):0
Sky conditions: overcast
Temperature: 61.0 F (16.1 C)
Dew Point: 51.1 F (10.6 C)
Relative Humidity: 69%
Pressure (altimeter): 30.25 in. Hg (1024 hPa)
ob: KECG 220654Z 34010KT 10SM OVC045 16/11 A3025 RMK AO2 SLP244 T01610106
cycle: 7

Station Type Date Time Source
KECG TAF 2020/09/22 06:33 UTC NOAA

TAF KECG 220528Z 2206/2306 35012KT P6SM BKN045
FM220900 35010KT P6SM SCT045
FM221200 34010KT P6SM SKC
FM221600 31008KT P6SM SKC
FM222300 29005KT P6SM SKC

Example: see airport list